KSPA/SPA METAR and TAF weather

Enter ICAO airport designator
Station Type Date Time Source
KSPA METAR 2019/07/18 11:15 UTC NOAA

KSPA 181115Z AUTO 00000KT 10SM CLR 22/21 A3002 RMK AO2


Station Type Date Time Source
KSPA Decoded METAR 2019/07/18 11:15 UTC NOAA

Spartanburg Memorial, SC, United States (KSPA) 34-55N 081-57W
Jul 18, 2019 - 07:15 AM EDT / 2019.07.18 1115 UTC
Wind: Calm:0
Visibility: 10 mile(s):0
Sky conditions: clear
Temperature: 71 F (22 C)
Dew Point: 69 F (21 C)
Relative Humidity: 94%
Pressure (altimeter): 30.02 in. Hg (1016 hPa)
ob: KSPA 181115Z AUTO 00000KT 10SM CLR 22/21 A3002 RMK AO2
cycle: 11

Station Type Date Time Source
KSPA TAF UTC NOAA

Error!

Example: see airport list